Time;durP1;ratioP1;P1;durP2;ratioP2;P2;SDS_P1;SDS_P2;PMS_P1;PMS_P2;Temp;Humidity;BMP_temperature;BMP_pressure;BME280_temperature;BME280_humidity;BME280_pressure;Samples;Min_cycle;Max_cycle;Signal;HPM_P1;HPM_P2
2024/04/11 00:00:57;;;;;;;2.40;1.40;;;16.30;71.40;;;;;;5495476;26;20009;-37
2024/04/11 00:03:23;;;;;;;2.28;1.60;;;16.30;71.40;;;;;;5489237;26;19994;-32
2024/04/11 00:05:48;;;;;;;2.25;1.30;;;16.30;71.40;;;;;;5475760;26;20047;-36
2024/04/11 00:08:14;;;;;;;3.15;1.50;;;16.30;71.40;;;;;;5483767;26;19994;-34
2024/04/11 00:10:40;;;;;;;1.85;1.40;;;16.30;71.40;;;;;;5455973;26;19999;-35
2024/04/11 00:13:18;;;;;;;1.88;1.48;;;16.20;71.40;;;;;;5474823;26;20005;-32
2024/04/11 00:15:46;;;;;;;1.73;1.40;;;16.30;71.50;;;;;;5457022;26;20003;-32
2024/04/11 00:18:12;;;;;;;1.42;1.20;;;16.20;71.40;;;;;;5481993;26;20026;-35
2024/04/11 00:20:37;;;;;;;3.67;1.30;;;16.20;71.50;;;;;;5485842;26;20022;-36
2024/04/11 00:23:03;;;;;;;2.08;1.38;;;16.20;71.50;;;;;;5476781;26;20493;-36
2024/04/11 00:25:29;;;;;;;2.80;1.50;;;16.20;71.60;;;;;;5490805;26;19994;-37
2024/04/11 00:27:56;;;;;;;2.78;1.52;;;16.20;71.70;;;;;;5472068;26;20028;-36
2024/04/11 00:30:21;;;;;;;1.30;1.20;;;16.20;71.70;;;;;;5480256;26;19998;-36
2024/04/11 00:32:48;;;;;;;1.38;1.27;;;16.20;71.70;;;;;;5481139;26;19995;-36
2024/04/11 00:35:17;;;;;;;2.20;1.50;;;16.20;71.70;;;;;;5478143;26;19995;-35
2024/04/11 00:37:43;;;;;;;3.50;1.52;;;16.20;71.80;;;;;;5485094;26;20011;-36
2024/04/11 00:40:09;;;;;;;2.88;1.50;;;16.10;71.70;;;;;;5466776;26;20045;-36
2024/04/11 00:42:35;;;;;;;2.72;1.30;;;16.20;71.80;;;;;;5485252;26;20019;-36
2024/04/11 00:45:04;;;;;;;2.28;1.30;;;16.10;71.80;;;;;;5475788;26;19998;-36
2024/04/11 00:47:30;;;;;;;2.40;1.30;;;16.10;72.50;;;;;;5477627;26;20010;-35
2024/04/11 00:49:56;;;;;;;4.10;1.50;;;16.10;71.80;;;;;;5485446;26;19999;-36
2024/04/11 00:52:23;;;;;;;2.20;1.40;;;16.20;71.90;;;;;;5476232;26;19997;-36
2024/04/11 00:54:49;;;;;;;2.92;1.40;;;16.10;71.80;;;;;;5462864;26;20035;-37
2024/04/11 00:57:15;;;;;;;2.03;1.20;;;16.10;71.80;;;;;;5481500;26;20002;-36
2024/04/11 00:59:41;;;;;;;2.50;1.30;;;16.10;71.80;;;;;;5481001;26;20018;-36
2024/04/11 01:02:11;;;;;;;3.03;1.40;;;16.10;71.90;;;;;;5472525;26;19995;-36
2024/04/11 01:04:38;;;;;;;2.05;1.20;;;16.10;71.90;;;;;;5475691;26;19994;-36
2024/04/11 01:07:09;;;;;;;2.42;1.30;;;16.10;71.90;;;;;;5488418;26;20014;-36
2024/04/11 01:09:38;;;;;;;1.85;1.30;;;16.10;71.90;;;;;;5492223;26;20002;-36
2024/04/11 01:12:04;;;;;;;1.90;1.23;;;16.10;71.90;;;;;;5470693;26;20378;-36
2024/04/11 01:14:31;;;;;;;1.80;1.20;;;16.10;71.90;;;;;;5465228;26;20057;-35
2024/04/11 01:16:57;;;;;;;2.20;1.50;;;16.10;72.00;;;;;;5491742;26;20003;-36
2024/04/11 01:19:23;;;;;;;2.15;1.25;;;16.10;72.00;;;;;;5480991;26;20005;-36
2024/04/11 01:21:49;;;;;;;2.75;1.30;;;16.10;72.00;;;;;;5482960;26;20012;-36
2024/04/11 01:24:15;;;;;;;3.85;1.50;;;16.10;72.10;;;;;;5469372;26;20003;-36
2024/04/11 01:26:42;;;;;;;3.50;1.33;;;16.10;72.10;;;;;;5474339;26;19997;-36
2024/04/11 01:29:08;;;;;;;2.70;1.40;;;16.10;72.10;;;;;;5466933;26;20081;-36
2024/04/11 01:31:38;;;;;;;1.77;1.23;;;16.10;72.10;;;;;;5457978;26;19999;-36
2024/04/11 01:34:04;;;;;;;2.83;1.25;;;16.10;72.10;;;;;;5490822;26;20016;-36
2024/04/11 01:36:30;;;;;;;1.95;1.30;;;16.10;72.10;;;;;;5468226;26;20010;-36
2024/04/11 01:38:56;;;;;;;2.53;1.38;;;16.10;72.10;;;;;;5465289;26;20017;-36
2024/04/11 01:41:23;;;;;;;2.13;1.20;;;16.00;72.10;;;;;;5485411;26;20001;-35
2024/04/11 01:43:50;;;;;;;1.75;1.30;;;16.00;72.20;;;;;;5491356;26;20035;-36
2024/04/11 01:46:18;;;;;;;1.88;1.17;;;16.00;72.20;;;;;;5488030;26;19994;-36
2024/04/11 01:48:47;;;;;;;1.52;1.10;;;16.00;72.20;;;;;;5493334;26;20539;-36
2024/04/11 01:51:14;;;;;;;1.52;1.10;;;16.00;72.20;;;;;;5493132;26;20012;-35
2024/04/11 01:53:40;;;;;;;2.08;1.30;;;16.00;72.20;;;;;;5487016;26;19998;-35
2024/04/11 01:56:06;;;;;;;1.80;1.30;;;16.00;72.20;;;;;;5487726;26;20010;-35
2024/04/11 01:58:32;;;;;;;1.60;1.10;;;16.00;72.20;;;;;;5495073;26;19994;-35
2024/04/11 02:01:09;;;;;;;3.00;1.35;;;16.00;72.30;;;;;;5475505;26;20017;-36
2024/04/11 02:03:43;;;;;;;2.90;1.73;;;16.10;72.30;;;;;;5472937;26;20018;-36
2024/04/11 02:06:11;;;;;;;1.80;1.30;;;16.00;72.30;;;;;;5477686;26;20002;-36
2024/04/11 02:08:41;;;;;;;2.05;1.42;;;16.00;72.30;;;;;;5486603;26;20013;-36
2024/04/11 02:11:07;;;;;;;3.05;1.38;;;16.00;72.30;;;;;;5479506;26;20003;-37
2024/04/11 02:13:33;;;;;;;3.60;1.48;;;16.00;72.30;;;;;;5480572;26;19995;-36
2024/04/11 02:15:59;;;;;;;1.52;1.05;;;16.00;72.30;;;;;;5487916;26;20076;-36
2024/04/11 02:18:27;;;;;;;2.15;1.30;;;16.00;72.40;;;;;;5491541;26;20029;-36
2024/04/11 02:20:53;;;;;;;2.15;1.23;;;16.00;72.40;;;;;;5487231;26;19998;-36
2024/04/11 02:23:19;;;;;;;1.98;1.20;;;16.00;72.40;;;;;;5468256;26;20061;-38
2024/04/11 02:25:46;;;;;;;3.53;1.33;;;16.00;72.40;;;;;;5471675;26;20047;-37
2024/04/11 02:28:13;;;;;;;2.10;1.40;;;16.00;72.50;;;;;;5479397;26;20382;-38
2024/04/11 02:30:39;;;;;;;1.77;1.20;;;16.00;72.40;;;;;;5466903;26;19994;-38
2024/04/11 02:33:05;;;;;;;2.72;1.42;;;16.00;72.40;;;;;;5482123;26;20002;-37
2024/04/11 02:35:32;;;;;;;2.30;1.30;;;16.00;72.50;;;;;;5466395;26;20010;-37
2024/04/11 02:37:58;;;;;;;1.45;1.30;;;16.00;72.50;;;;;;5484251;26;20095;-37
2024/04/11 02:40:25;;;;;;;1.33;1.10;;;16.00;72.50;;;;;;5460130;26;20381;-37
2024/04/11 02:42:51;;;;;;;1.90;1.02;;;16.00;72.50;;;;;;5479062;26;20011;-38
2024/04/11 02:45:18;;;;;;;2.70;1.08;;;16.00;72.50;;;;;;5471227;26;19998;-36
2024/04/11 02:47:44;;;;;;;1.42;1.23;;;16.00;72.50;;;;;;5476299;26;20480;-37
2024/04/11 02:50:15;;;;;;;1.17;1.10;;;16.00;72.60;;;;;;5486544;26;19999;-37
2024/04/11 02:52:41;;;;;;;1.65;1.25;;;16.00;72.60;;;;;;5477490;26;20017;-37
2024/04/11 02:55:08;;;;;;;1.77;1.25;;;16.00;72.60;;;;;;5466396;26;20015;-37
2024/04/11 02:57:35;;;;;;;1.77;1.23;;;16.00;72.60;;;;;;5481971;26;20013;-37
2024/04/11 03:00:00;;;;;;;3.38;1.30;;;16.00;72.60;;;;;;5475332;26;20011;-38
2024/04/11 03:02:29;;;;;;;2.05;1.40;;;16.00;72.60;;;;;;5470269;26;20078;-37
2024/04/11 03:04:57;;;;;;;3.25;1.30;;;16.00;72.60;;;;;;5481972;26;20005;-37
2024/04/11 03:07:23;;;;;;;1.75;1.20;;;16.00;72.60;;;;;;5494831;26;19999;-38
2024/04/11 03:09:53;;;;;;;2.53;1.10;;;16.00;72.60;;;;;;5477797;26;19994;-38
2024/04/11 03:12:20;;;;;;;2.63;1.20;;;16.00;72.70;;;;;;5479995;26;20002;-41
2024/04/11 03:14:47;;;;;;;2.58;1.42;;;16.00;72.60;;;;;;5451061;26;19995;-36
2024/04/11 03:17:13;;;;;;;2.42;1.40;;;16.00;72.70;;;;;;5457319;26;20013;-37
2024/04/11 03:19:40;;;;;;;3.22;1.38;;;15.90;72.70;;;;;;5484785;26;20006;-37
2024/04/11 03:22:06;;;;;;;3.22;1.25;;;16.00;72.70;;;;;;5480685;26;20046;-37
2024/04/11 03:24:32;;;;;;;2.03;1.35;;;15.90;72.60;;;;;;5479498;26;20001;-37
2024/04/11 03:27:00;;;;;;;1.25;1.10;;;16.00;72.70;;;;;;5488691;26;20013;-36
2024/04/11 03:29:27;;;;;;;1.40;1.20;;;16.00;72.70;;;;;;5478113;26;20002;-37
2024/04/11 03:31:54;;;;;;;2.60;1.33;;;16.00;72.70;;;;;;5469884;26;20002;-43
2024/04/11 03:34:21;;;;;;;1.92;1.25;;;16.00;72.80;;;;;;5485013;26;20047;-37
2024/04/11 03:36:49;;;;;;;3.85;1.40;;;16.00;72.70;;;;;;5478528;26;20044;-38
2024/04/11 03:39:15;;;;;;;3.45;1.42;;;16.00;72.70;;;;;;5456308;26;20378;-37
2024/04/11 03:41:52;;;;;;;2.17;1.30;;;16.00;72.80;;;;;;5484462;26;20013;-38
2024/04/11 03:44:18;;;;;;;2.53;1.50;;;16.00;72.80;;;;;;5444212;26;20013;-37
2024/04/11 03:46:44;;;;;;;1.60;1.20;;;16.00;72.80;;;;;;5467276;26;19998;-37
2024/04/11 03:49:12;;;;;;;4.38;1.58;;;16.00;72.80;;;;;;5487480;26;20005;-39
2024/04/11 03:51:41;;;;;;;1.58;1.35;;;16.00;72.80;;;;;;5474813;26;20009;-37
2024/04/11 03:54:09;;;;;;;2.22;1.40;;;15.90;72.70;;;;;;5480027;26;19998;-37
2024/04/11 03:56:35;;;;;;;1.95;1.15;;;15.90;72.70;;;;;;5469783;26;19995;-37
2024/04/11 03:59:03;;;;;;;4.57;1.55;;;16.00;72.80;;;;;;5483449;26;20313;-42
2024/04/11 04:01:30;;;;;;;2.92;1.45;;;15.90;72.80;;;;;;5475529;26;19994;-37
2024/04/11 04:04:03;;;;;;;2.17;1.40;;;16.00;72.90;;;;;;5489621;26;20046;-41
2024/04/11 04:06:31;;;;;;;1.58;1.20;;;16.00;72.80;;;;;;5474983;26;20047;-36
2024/04/11 04:08:57;;;;;;;2.15;1.30;;;16.00;72.80;;;;;;5474179;26;20073;-37
2024/04/11 04:11:22;;;;;;;2.33;1.30;;;16.00;72.80;;;;;;5483362;26;19990;-37
2024/04/11 04:13:52;;;;;;;2.05;1.30;;;16.00;72.80;;;;;;5474738;26;20048;-36
2024/04/11 04:16:19;;;;;;;1.83;1.27;;;16.00;72.90;;;;;;5475980;26;19994;-36
2024/04/11 04:18:52;;;;;;;3.50;1.40;;;16.00;72.90;;;;;;5470720;26;20421;-37
2024/04/11 04:21:20;;;;;;;2.40;1.42;;;16.00;72.90;;;;;;5480820;26;20009;-37
2024/04/11 04:23:50;;;;;;;2.85;1.50;;;16.00;72.90;;;;;;5461387;26;20002;-37
2024/04/11 04:26:19;;;;;;;3.60;1.40;;;15.90;72.80;;;;;;5480743;26;20013;-37
2024/04/11 04:28:45;;;;;;;2.53;1.38;;;16.00;72.80;;;;;;5440257;26;21993;-37
2024/04/11 04:31:17;;;;;;;1.45;1.30;;;16.00;72.80;;;;;;5465033;26;20017;-37
2024/04/11 04:33:47;;;;;;;2.25;1.30;;;16.00;72.80;;;;;;5482991;26;20010;-37
2024/04/11 04:36:26;;;;;;;2.63;1.40;;;16.00;72.80;;;;;;5483289;26;20391;-36
2024/04/11 04:38:59;;;;;;;1.55;1.13;;;16.00;72.90;;;;;;5472417;26;19998;-37
2024/04/11 04:41:29;;;;;;;2.60;1.33;;;16.00;72.90;;;;;;5478515;26;20009;-37
2024/04/11 04:43:57;;;;;;;2.92;1.35;;;16.00;72.80;;;;;;5475442;26;19998;-36
2024/04/11 04:46:28;;;;;;;1.63;1.15;;;16.00;72.80;;;;;;5470070;26;20023;-37
2024/04/11 04:48:58;;;;;;;1.65;1.27;;;15.90;72.70;;;;;;5487848;26;20054;-37
2024/04/11 04:51:26;;;;;;;1.88;1.27;;;16.00;72.90;;;;;;5462875;26;20306;-37
2024/04/11 04:53:53;;;;;;;2.50;1.20;;;16.00;72.90;;;;;;5458050;26;19999;-37
2024/04/11 04:56:22;;;;;;;3.45;1.60;;;16.00;72.90;;;;;;5477219;26;20010;-37
2024/04/11 04:58:51;;;;;;;2.00;1.40;;;15.90;72.70;;;;;;5478515;26;20003;-37
2024/04/11 05:01:17;;;;;;;2.53;1.30;;;16.00;72.80;;;;;;5472347;26;20466;-38
2024/04/11 05:03:44;;;;;;;2.42;1.48;;;16.00;72.80;;;;;;5474602;26;20033;-38
2024/04/11 05:06:14;;;;;;;1.42;1.25;;;15.90;72.70;;;;;;5469937;26;20013;-38
2024/04/11 05:08:46;;;;;;;2.22;1.30;;;15.90;72.70;;;;;;5469119;26;20466;-37
2024/04/11 05:11:16;;;;;;;3.58;1.40;;;16.00;72.80;;;;;;5463289;26;20010;-37
2024/04/11 05:13:49;;;;;;;1.17;1.10;;;15.90;72.70;;;;;;5459571;26;20553;-37
2024/04/11 05:16:18;;;;;;;1.73;1.20;;;15.90;72.70;;;;;;5491632;26;19997;-38
2024/04/11 05:18:46;;;;;;;1.90;1.33;;;15.90;72.70;;;;;;5473043;26;20006;-37
2024/04/11 05:21:18;;;;;;;2.03;1.27;;;15.90;72.80;;;;;;5490079;26;20064;-37
2024/04/11 05:23:44;;;;;;;3.03;1.38;;;15.90;72.80;;;;;;5459078;26;20006;-37
2024/04/11 05:26:22;;;;;;;3.10;1.40;;;15.90;72.80;;;;;;5477824;26;19995;-37
2024/04/11 05:28:48;;;;;;;2.15;1.40;;;15.90;72.80;;;;;;5460956;26;20003;-36
2024/04/11 05:31:16;;;;;;;1.70;1.35;;;15.90;73.40;;;;;;5483904;26;20400;-37
2024/04/11 05:33:43;;;;;;;1.90;1.40;;;15.90;72.80;;;;;;5471946;26;20426;-37
2024/04/11 05:36:12;;;;;;;2.33;1.50;;;15.80;72.80;;;;;;5471464;26;20013;-37
2024/04/11 05:38:44;;;;;;;3.17;1.40;;;15.90;73.40;;;;;;5478065;26;20002;-37
2024/04/11 05:41:10;;;;;;;2.00;1.10;;;15.90;72.80;;;;;;5471710;26;20462;-37
2024/04/11 05:43:42;;;;;;;2.65;1.35;;;15.90;72.80;;;;;;5484832;26;19998;-37
2024/04/11 05:46:18;;;;;;;1.52;1.30;;;15.90;72.70;;;;;;5473426;26;20014;-37
2024/04/11 05:48:44;;;;;;;3.58;1.67;;;15.90;72.80;;;;;;5464475;26;20007;-37
2024/04/11 05:51:10;;;;;;;2.03;1.30;;;15.90;72.80;;;;;;5478023;26;20002;-37
2024/04/11 05:53:40;;;;;;;2.05;1.30;;;15.90;72.80;;;;;;5480348;26;20006;-36
2024/04/11 05:56:07;;;;;;;3.13;1.25;;;15.90;72.80;;;;;;5472340;26;20014;-37
2024/04/11 05:58:33;;;;;;;1.38;1.20;;;15.90;72.80;;;;;;5489925;26;20325;-37
2024/04/11 06:01:05;;;;;;;2.72;1.50;;;15.80;72.80;;;;;;5477858;26;20050;-38
2024/04/11 06:03:34;;;;;;;2.28;1.15;;;15.90;72.80;;;;;;5463397;26;19999;-37
2024/04/11 06:06:00;;;;;;;1.38;1.20;;;15.90;72.80;;;;;;5475055;26;19998;-37
2024/04/11 06:08:25;;;;;;;2.80;1.30;;;15.90;72.80;;;;;;5475610;26;19998;-37
2024/04/11 06:10:52;;;;;;;1.75;1.20;;;15.80;72.80;;;;;;5486144;26;20107;-37
2024/04/11 06:13:18;;;;;;;1.75;1.10;;;15.80;72.80;;;;;;5470153;26;19994;-37
2024/04/11 06:15:47;;;;;;;2.53;1.30;;;15.90;72.90;;;;;;5477080;26;20009;-37
2024/04/11 06:18:15;;;;;;;2.28;1.40;;;15.80;72.90;;;;;;5473563;26;19998;-37
2024/04/11 06:20:44;;;;;;;1.40;1.23;;;15.80;72.90;;;;;;5479436;26;19999;-37
2024/04/11 06:23:15;;;;;;;1.45;1.20;;;15.90;73.00;;;;;;5462001;26;19994;-37
2024/04/11 06:25:42;;;;;;;1.27;1.15;;;15.80;73.00;;;;;;5491185;26;20006;-37
2024/04/11 06:28:14;;;;;;;1.83;1.27;;;15.80;73.00;;;;;;5490723;26;20025;-38
2024/04/11 06:30:51;;;;;;;1.92;1.40;;;15.90;73.10;;;;;;5476429;26;20045;-36
2024/04/11 06:33:18;;;;;;;2.83;1.35;;;15.90;73.10;;;;;;5462769;26;19995;-36
2024/04/11 06:35:47;;;;;;;1.27;1.15;;;15.80;73.00;;;;;;5470988;26;20002;-38
2024/04/11 06:38:14;;;;;;;2.40;1.30;;;15.80;73.10;;;;;;5485969;26;19994;-37
2024/04/11 06:40:42;;;;;;;2.72;1.35;;;15.90;73.10;;;;;;5490520;26;20034;-38
2024/04/11 06:43:08;;;;;;;2.92;1.40;;;15.90;73.10;;;;;;5465322;26;19994;-37
2024/04/11 06:45:34;;;;;;;1.65;1.25;;;15.80;73.10;;;;;;5483829;26;20006;-37
2024/04/11 06:48:00;;;;;;;1.98;1.40;;;15.90;73.10;;;;;;5463387;26;19998;-37
2024/04/11 06:50:26;;;;;;;1.38;1.27;;;15.90;73.10;;;;;;5465132;26;20441;-38
2024/04/11 06:52:52;;;;;;;1.33;1.10;;;15.90;73.10;;;;;;5478954;26;20002;-37
2024/04/11 06:55:19;;;;;;;1.98;1.17;;;15.90;73.10;;;;;;5480705;26;20002;-38
2024/04/11 06:57:45;;;;;;;1.83;1.38;;;15.90;73.10;;;;;;5480605;26;20070;-37
2024/04/11 07:00:14;;;;;;;1.65;1.10;;;15.90;73.10;;;;;;5472265;26;20366;-37
2024/04/11 07:02:44;;;;;;;2.20;1.30;;;15.90;73.10;;;;;;5458483;26;19998;-38
2024/04/11 07:05:13;;;;;;;2.97;1.20;;;15.90;73.10;;;;;;5469242;26;20030;-37
2024/04/11 07:07:45;;;;;;;1.77;1.10;;;15.90;73.10;;;;;;5473666;26;20009;-36
2024/04/11 07:10:24;;;;;;;1.90;1.40;;;15.90;73.10;;;;;;5481180;26;20084;-36
2024/04/11 07:12:53;;;;;;;2.17;1.33;;;15.90;73.10;;;;;;5474320;26;20119;-37
2024/04/11 07:15:28;;;;;;;1.95;1.35;;;15.90;73.10;;;;;;5470259;26;20318;-36
2024/04/11 07:17:57;;;;;;;1.30;1.20;;;15.90;73.10;;;;;;5457037;26;20019;-37
2024/04/11 07:20:30;;;;;;;2.03;1.30;;;15.90;73.10;;;;;;5438680;26;19995;-39
2024/04/11 07:23:04;;;;;;;1.52;1.20;;;15.90;73.20;;;;;;5474375;26;20010;-37
2024/04/11 07:25:35;;;;;;;2.83;1.40;;;15.90;73.80;;;;;;5473683;26;19999;-37
2024/04/11 07:28:04;;;;;;;1.70;1.10;;;15.90;73.20;;;;;;5474694;26;20053;-42
2024/04/11 07:30:30;;;;;;;2.08;1.30;;;15.90;73.20;;;;;;5482878;26;19998;-36
2024/04/11 07:33:01;;;;;;;2.33;1.30;;;15.90;73.20;;;;;;5459201;26;20002;-36
2024/04/11 07:35:26;;;;;;;1.85;1.33;;;15.90;73.20;;;;;;5457983;26;19995;-36
2024/04/11 07:37:59;;;;;;;2.38;1.27;;;15.90;73.20;;;;;;5459130;26;20049;-36
2024/04/11 07:40:32;;;;;;;2.10;1.30;;;15.90;73.20;;;;;;5465921;26;19998;-37
2024/04/11 07:43:05;;;;;;;1.83;1.10;;;15.90;73.30;;;;;;5482284;26;20032;-36
2024/04/11 07:45:35;;;;;;;2.47;1.50;;;15.90;73.20;;;;;;5495334;26;20009;-37
2024/04/11 07:48:07;;;;;;;2.13;1.48;;;15.90;73.30;;;;;;5471545;25;19999;-37
2024/04/11 07:50:35;;;;;;;2.83;1.40;;;15.90;73.30;;;;;;5469017;26;20013;-37
2024/04/11 07:53:02;;;;;;;2.42;1.40;;;15.90;73.30;;;;;;5485247;26;20002;-37
2024/04/11 07:55:28;;;;;;;1.58;1.40;;;15.90;73.30;;;;;;5461755;26;20005;-37
2024/04/11 07:57:58;;;;;;;3.17;1.40;;;15.90;73.40;;;;;;5461652;26;19998;-37
2024/04/11 08:00:27;;;;;;;1.52;1.30;;;15.90;73.30;;;;;;5478538;26;19994;-37
2024/04/11 08:02:56;;;;;;;2.80;1.30;;;15.90;73.60;;;;;;5482653;26;20038;-40
2024/04/11 08:05:24;;;;;;;1.90;1.30;;;15.90;73.40;;;;;;5467121;26;20005;-37
2024/04/11 08:07:51;;;;;;;2.45;1.50;;;15.90;73.40;;;;;;5462097;26;20004;-37
2024/04/11 08:10:20;;;;;;;1.67;1.23;;;15.90;73.40;;;;;;5464013;26;20019;-37
2024/04/11 08:12:50;;;;;;;3.17;1.60;;;15.90;73.40;;;;;;5475570;26;20510;-37
2024/04/11 08:15:16;;;;;;;1.95;1.35;;;15.90;73.40;;;;;;5464801;26;20072;-37
2024/04/11 08:17:42;;;;;;;2.42;1.45;;;15.90;73.50;;;;;;5476529;26;20003;-37
2024/04/11 08:20:12;;;;;;;2.65;1.40;;;15.90;73.50;;;;;;5470204;26;19995;-37
2024/04/11 08:22:39;;;;;;;2.00;1.35;;;15.90;73.50;;;;;;5495118;26;20022;-37
2024/04/11 08:25:06;;;;;;;2.45;1.40;;;15.90;73.50;;;;;;5490125;26;20055;-36
2024/04/11 08:27:32;;;;;;;2.58;1.30;;;15.90;73.50;;;;;;5466206;26;20050;-37
2024/04/11 08:29:58;;;;;;;3.25;1.42;;;15.90;73.40;;;;;;5476862;26;19998;-36
2024/04/11 08:32:25;;;;;;;1.60;1.30;;;15.90;73.50;;;;;;5461928;26;20020;-37
2024/04/11 08:34:52;;;;;;;2.97;1.60;;;15.90;73.50;;;;;;5465858;26;20010;-37
2024/04/11 08:37:19;;;;;;;3.10;1.63;;;15.90;73.50;;;;;;5461472;26;20013;-37
2024/04/11 08:39:44;;;;;;;3.58;1.70;;;16.00;73.50;;;;;;5462722;26;19999;-37
2024/04/11 08:42:12;;;;;;;2.78;1.40;;;15.90;73.50;;;;;;5479715;26;20009;-39
2024/04/11 08:44:41;;;;;;;2.83;1.45;;;15.90;73.50;;;;;;5476464;26;20078;-37
2024/04/11 08:47:07;;;;;;;2.30;1.40;;;15.90;73.50;;;;;;5494199;26;19991;-36
2024/04/11 08:49:32;;;;;;;3.00;1.60;;;16.00;73.60;;;;;;5496528;26;19998;-38
2024/04/11 08:52:00;;;;;;;3.17;1.42;;;16.00;73.60;;;;;;5482724;26;20504;-37
2024/04/11 08:54:27;;;;;;;2.92;1.50;;;16.00;73.60;;;;;;5461412;26;19995;-36
2024/04/11 08:56:53;;;;;;;2.97;1.73;;;16.00;73.60;;;;;;5469301;26;20002;-38
2024/04/11 08:59:23;;;;;;;3.65;1.65;;;16.00;73.60;;;;;;5492263;26;20009;-38
2024/04/11 09:01:49;;;;;;;2.65;1.52;;;16.00;73.60;;;;;;5475020;26;20029;-37
2024/04/11 09:04:17;;;;;;;2.55;1.60;;;16.00;73.60;;;;;;5459668;26;20040;-37
2024/04/11 09:06:47;;;;;;;1.70;1.40;;;16.00;73.50;;;;;;5459043;26;20409;-38
2024/04/11 09:09:16;;;;;;;2.45;1.75;;;16.00;73.60;;;;;;5485341;26;19994;-37
2024/04/11 09:11:44;;;;;;;2.25;1.65;;;16.00;73.60;;;;;;5474538;26;20017;-37
2024/04/11 09:14:14;;;;;;;3.47;1.60;;;16.00;73.50;;;;;;5487783;26;20013;-37
2024/04/11 09:16:40;;;;;;;3.10;1.63;;;16.10;73.60;;;;;;5467809;26;19998;-38
2024/04/11 09:19:09;;;;;;;2.88;1.80;;;16.00;73.50;;;;;;5480604;26;20013;-37
2024/04/11 09:21:45;;;;;;;3.35;1.60;;;16.10;73.60;;;;;;5468412;26;20009;-37
2024/04/11 09:24:16;;;;;;;3.53;1.75;;;16.10;73.60;;;;;;5490278;26;20006;-37
2024/04/11 09:26:43;;;;;;;3.58;1.77;;;16.10;73.60;;;;;;5487549;26;19994;-37
2024/04/11 09:29:12;;;;;;;3.92;1.58;;;16.10;73.60;;;;;;5483654;26;20003;-37
2024/04/11 09:31:38;;;;;;;2.78;1.67;;;16.10;73.60;;;;;;5467963;26;20015;-37
2024/04/11 09:34:13;;;;;;;2.75;1.67;;;16.10;73.60;;;;;;5461355;26;20007;-37
2024/04/11 09:36:52;;;;;;;3.60;1.77;;;16.20;73.60;;;;;;5463101;26;20019;-37
2024/04/11 09:42:20;;;;;;;1.83;1.52;;;16.20;73.60;;;;;;5477321;26;20078;-38
2024/04/11 09:44:47;;;;;;;2.17;1.42;;;16.20;73.80;;;;;;5476546;26;20008;-38
2024/04/11 09:47:18;;;;;;;2.80;1.67;;;16.20;73.60;;;;;;5490998;26;19998;-37
2024/04/11 09:49:59;;;;;;;2.92;1.70;;;16.20;73.60;;;;;;5481938;26;20066;-38
2024/04/11 09:52:30;;;;;;;3.85;1.92;;;16.20;73.60;;;;;;5462485;26;20447;-37
2024/04/11 09:55:00;;;;;;;2.50;1.52;;;16.20;73.60;;;;;;5480129;26;19994;-37
2024/04/11 09:57:29;;;;;;;2.10;1.77;;;16.20;73.60;;;;;;5467871;26;19999;-37
2024/04/11 09:59:55;;;;;;;2.75;1.67;;;16.30;73.60;;;;;;5482980;26;19994;-36
2024/04/11 10:02:24;;;;;;;2.50;1.80;;;16.30;74.20;;;;;;5466302;26;19999;-37
2024/04/11 10:05:05;;;;;;;3.78;1.90;;;16.30;73.60;;;;;;5484796;26;20002;-38
2024/04/11 10:07:41;;;;;;;3.25;1.70;;;16.40;73.70;;;;;;5482711;26;20005;-38
2024/04/11 10:10:27;;;;;;;2.55;1.85;;;16.30;73.60;;;;;;5470310;26;19998;-37
2024/04/11 10:12:58;;;;;;;2.88;1.70;;;16.40;73.60;;;;;;5486391;26;20018;-37
2024/04/11 10:15:29;;;;;;;2.88;1.98;;;16.40;73.60;;;;;;5474885;26;19997;-37
2024/04/11 10:18:07;;;;;;;2.88;1.88;;;16.40;73.60;;;;;;5472696;26;20013;-39
2024/04/11 10:21:01;;;;;;;1.70;1.60;;;16.50;73.70;;;;;;5474823;26;20002;-38
2024/04/11 10:23:37;;;;;;;3.72;1.83;;;16.40;73.70;;;;;;5470592;26;20484;-37
2024/04/11 10:26:06;;;;;;;2.13;1.65;;;16.40;73.60;;;;;;5477433;26;20038;-38
2024/04/11 10:28:41;;;;;;;3.95;2.17;;;16.40;73.60;;;;;;5472042;26;20003;-37
2024/04/11 10:31:12;;;;;;;3.65;2.20;;;16.50;73.70;;;;;;5462632;26;20067;-37
2024/04/11 10:33:53;;;;;;;3.67;2.40;;;16.50;73.70;;;;;;5484712;26;19994;-37
2024/04/11 10:36:21;;;;;;;2.80;2.28;;;16.50;73.70;;;;;;5463926;26;20007;-37
2024/04/11 10:38:57;;;;;;;3.45;2.20;;;16.50;73.70;;;;;;5486219;26;20375;-37
2024/04/11 10:41:23;;;;;;;3.67;2.22;;;16.50;73.70;;;;;;5483580;26;20053;-38
2024/04/11 10:43:52;;;;;;;3.95;2.15;;;16.50;73.70;;;;;;5492710;26;19994;-37
2024/04/11 10:46:21;;;;;;;4.30;2.38;;;16.60;73.80;;;;;;5470839;26;19998;-37
2024/04/11 10:48:48;;;;;;;4.32;2.70;;;16.60;73.80;;;;;;5464536;26;20290;-37
2024/04/11 10:51:15;;;;;;;2.97;2.30;;;16.60;73.80;;;;;;5486954;26;20323;-37
2024/04/11 10:53:47;;;;;;;3.95;2.67;;;16.60;73.80;;;;;;5478769;26;20048;-37
2024/04/11 10:56:22;;;;;;;4.18;2.47;;;16.60;73.80;;;;;;5475528;26;19995;-37
2024/04/11 10:58:53;;;;;;;2.90;2.10;;;16.60;73.80;;;;;;5465780;26;20025;-37
2024/04/11 11:01:26;;;;;;;3.67;2.60;;;16.60;73.80;;;;;;5485203;26;20003;-37
2024/04/11 11:03:57;;;;;;;3.00;2.30;;;16.60;73.80;;;;;;5472413;26;19998;-37
2024/04/11 11:06:24;;;;;;;3.53;2.63;;;16.60;73.80;;;;;;5481180;26;20636;-37
2024/04/11 11:09:10;;;;;;;4.25;2.83;;;16.70;73.90;;;;;;5469730;26;20346;-37
2024/04/11 11:11:40;;;;;;;6.10;2.90;;;16.70;74.00;;;;;;5462469;26;19994;-38
2024/04/11 11:14:08;;;;;;;4.72;2.60;;;16.70;73.90;;;;;;5475693;26;20006;-37
2024/04/11 11:16:37;;;;;;;4.15;2.90;;;16.70;73.90;;;;;;5487027;26;19998;-37
2024/04/11 11:19:05;;;;;;;4.10;2.80;;;16.80;74.00;;;;;;5460636;26;19998;-38
2024/04/11 11:21:34;;;;;;;4.15;2.70;;;16.80;74.00;;;;;;5484958;26;20102;-37
2024/04/11 11:24:01;;;;;;;4.85;3.00;;;16.80;74.00;;;;;;5466992;26;20006;-37
2024/04/11 11:26:35;;;;;;;4.30;3.00;;;16.80;74.00;;;;;;5460373;26;20017;-37
2024/04/11 11:29:06;;;;;;;4.47;2.80;;;16.80;74.00;;;;;;5490489;26;19998;-38
2024/04/11 11:31:36;;;;;;;3.85;2.90;;;16.80;73.90;;;;;;5471955;26;20529;-37
2024/04/11 11:34:09;;;;;;;4.28;3.05;;;16.80;74.00;;;;;;5467293;26;19999;-37
2024/04/11 11:36:44;;;;;;;4.00;2.90;;;16.90;74.00;;;;;;5481820;26;20010;-37
2024/04/11 11:39:25;;;;;;;4.85;3.05;;;16.80;74.10;;;;;;5477780;26;20048;-38
2024/04/11 11:42:00;;;;;;;3.97;2.80;;;16.90;74.10;;;;;;5466076;26;20009;-37
2024/04/11 11:44:34;;;;;;;4.70;3.17;;;16.90;74.10;;;;;;5466884;26;20443;-37
2024/04/11 11:47:08;;;;;;;3.67;2.67;;;16.90;74.10;;;;;;5491210;26;20013;-37
2024/04/11 11:49:38;;;;;;;3.45;2.95;;;16.90;74.10;;;;;;5480035;26;20002;-37
2024/04/11 11:52:05;;;;;;;4.28;2.85;;;17.00;74.10;;;;;;5476006;26;19999;-37
2024/04/11 11:54:34;;;;;;;4.10;3.10;;;16.90;74.10;;;;;;5481610;26;20043;-37
2024/04/11 11:57:17;;;;;;;4.25;3.00;;;17.00;74.10;;;;;;5467518;26;19994;-37
2024/04/11 11:59:44;;;;;;;4.03;2.95;;;17.00;74.00;;;;;;5467806;26;20021;-37
2024/04/11 12:02:13;;;;;;;4.45;3.22;;;17.00;74.10;;;;;;5467156;26;20474;-37
2024/04/11 12:04:40;;;;;;;5.20;3.33;;;17.00;74.00;;;;;;5469897;26;20017;-38
2024/04/11 12:07:06;;;;;;;4.57;3.17;;;17.00;74.10;;;;;;5469924;26;20447;-37
2024/04/11 12:09:31;;;;;;;3.92;3.10;;;17.10;74.10;;;;;;5476023;26;20006;-37
2024/04/11 12:12:20;;;;;;;4.40;3.60;;;17.10;74.10;;;;;;5483520;26;19998;-37
2024/04/11 12:14:54;;;;;;;5.80;3.60;;;17.10;74.10;;;;;;5462256;26;19999;-37
2024/04/11 12:17:24;;;;;;;5.13;3.57;;;17.10;74.10;;;;;;5470938;26;20013;-37
2024/04/11 12:19:53;;;;;;;4.68;3.42;;;17.10;74.10;;;;;;5477498;26;19998;-37
2024/04/11 12:22:20;;;;;;;5.10;4.00;;;17.10;74.10;;;;;;5463019;26;20075;-37
2024/04/11 12:24:46;;;;;;;4.80;3.60;;;17.10;74.10;;;;;;5467012;26;20014;-37
2024/04/11 12:27:15;;;;;;;5.25;3.85;;;17.20;74.10;;;;;;5473934;26;20446;-37
2024/04/11 12:29:42;;;;;;;5.45;4.00;;;17.20;74.10;;;;;;5491245;26;20017;-38
2024/04/11 12:32:08;;;;;;;6.15;4.30;;;17.20;74.10;;;;;;5463747;26;20128;-37
2024/04/11 12:34:37;;;;;;;6.40;3.97;;;17.20;74.10;;;;;;5467550;26;20009;-38
2024/04/11 12:37:15;;;;;;;4.38;3.90;;;17.30;74.20;;;;;;5470437;26;20080;-38
2024/04/11 12:39:45;;;;;;;5.18;4.03;;;17.30;74.10;;;;;;5465116;26;20035;-38
2024/04/11 12:42:17;;;;;;;5.43;4.13;;;17.30;74.10;;;;;;5470329;26;20002;-36
2024/04/11 12:44:46;;;;;;;5.43;4.22;;;17.30;74.10;;;;;;5460439;26;20039;-37
2024/04/11 12:47:16;;;;;;;5.20;3.83;;;17.30;74.00;;;;;;5463725;26;19994;-39
2024/04/11 12:49:47;;;;;;;4.80;4.10;;;17.40;74.10;;;;;;5463041;26;20079;-36
2024/04/11 12:52:22;;;;;;;5.30;4.07;;;17.40;74.10;;;;;;5469536;26;19995;-37
2024/04/11 12:54:50;;;;;;;4.88;3.90;;;17.40;74.20;;;;;;5480044;26;20078;-36
2024/04/11 12:57:17;;;;;;;5.50;4.30;;;17.40;74.20;;;;;;5461187;26;20002;-37
2024/04/11 12:59:46;;;;;;;5.47;4.10;;;17.40;74.10;;;;;;5467004;26;19999;-37